Time;durP1;ratioP1;P1;durP2;ratioP2;P2;SDS_P1;SDS_P2;PMS_P1;PMS_P2;Temp;Humidity;BMP_temperature;BMP_pressure;BME280_temperature;BME280_humidity;BME280_pressure;Samples;Min_cycle;Max_cycle;Signal;HPM_P1;HPM_P2
2021/12/12 00:03:19;;;;;;;48.63;22.07;;;;;;;22.87;36.30;96826.16;10369015;28;98263;-66
2021/12/12 00:08:28;;;;;;;46.28;22.45;;;;;;;22.85;36.54;96822.91;10360020;28;97943;-66
2021/12/12 00:13:36;;;;;;;47.80;21.65;;;;;;;22.86;36.12;96829.06;10375031;28;97344;-66
2021/12/12 00:18:41;;;;;;;44.28;20.17;;;;;;;22.80;36.30;96820.88;10359734;28;97084;-66
2021/12/12 00:23:44;;;;;;;41.10;18.45;;;;;;;22.76;36.36;96816.19;10364254;28;97669;-67
2021/12/12 00:28:49;;;;;;;39.25;18.30;;;;;;;22.73;36.11;96822.72;10370603;28;97072;-67
2021/12/12 00:33:56;;;;;;;37.33;17.97;;;;;;;22.71;36.53;96816.00;10367714;28;97613;-67
2021/12/12 00:39:05;;;;;;;33.92;16.55;;;;;;;22.70;35.85;96822.34;10369179;28;96928;-66
2021/12/12 00:44:09;;;;;;;33.55;16.27;;;;;;;22.69;35.90;96832.19;10360809;28;97899;-67
2021/12/12 00:49:14;;;;;;;31.98;15.13;;;;;;;22.63;36.44;96823.19;10371133;28;96886;-67
2021/12/12 00:54:18;;;;;;;33.97;14.85;;;;;;;22.60;36.28;96826.28;10361757;28;97772;-67
2021/12/12 00:59:21;;;;;;;31.27;14.77;;;;;;;22.59;36.19;96835.28;10365418;28;96910;-67
2021/12/12 01:04:32;;;;;;;28.65;14.60;;;;;;;22.55;35.80;96844.72;10362365;28;97253;-67
2021/12/12 01:09:38;;;;;;;25.20;12.43;;;;;;;22.51;35.85;96846.16;10365260;28;98701;-67
2021/12/12 01:14:44;;;;;;;24.52;11.88;;;;;;;22.50;35.79;96859.69;10365604;28;98648;-66
2021/12/12 01:19:51;;;;;;;28.85;12.27;;;;;;;22.45;35.72;96857.59;10359702;28;100188;-67
2021/12/12 01:24:56;;;;;;;23.05;11.20;;;;;;;22.41;35.73;96853.72;10367631;28;98150;-66
2021/12/12 01:29:59;;;;;;;21.23;11.13;;;;;;;22.40;36.17;96879.53;10359337;28;97581;-67
2021/12/12 01:35:13;;;;;;;21.58;10.85;;;;;;;22.39;35.34;96885.06;10368464;28;97353;-67
2021/12/12 01:40:20;;;;;;;21.67;9.80;;;;;;;22.35;36.05;96886.50;10368890;28;97948;-67
2021/12/12 01:45:26;;;;;;;17.38;9.48;;;;;;;22.32;35.96;96892.22;10362211;28;99187;-67
2021/12/12 01:50:36;;;;;;;17.75;9.40;;;;;;;22.30;35.83;96888.94;10370795;28;98274;-66
2021/12/12 01:55:42;;;;;;;19.48;9.82;;;;;;;22.25;36.00;96898.38;10363230;28;97039;-66
2021/12/12 02:00:50;;;;;;;19.25;9.23;;;;;;;22.27;36.07;96897.38;10363385;28;99222;-66
2021/12/12 02:05:56;;;;;;;17.13;8.30;;;;;;;22.27;35.68;96906.16;10374099;28;98836;-66
2021/12/12 02:11:02;;;;;;;14.73;7.50;;;;;;;22.21;35.54;96896.31;10359518;28;99151;-66
2021/12/12 02:16:07;;;;;;;14.05;7.63;;;;;;;22.21;36.02;96907.81;10364040;28;97465;-66
2021/12/12 02:21:19;;;;;;;13.05;7.10;;;;;;;22.20;35.54;96914.16;10358319;28;98302;-66
2021/12/12 02:37:09;;;;;;;12.77;6.60;;;;;;;22.13;35.99;96928.50;10380200;28;97549;-66
2021/12/12 02:42:17;;;;;;;11.75;6.53;;;;;;;22.10;35.54;96927.03;10367644;28;96840;-66
2021/12/12 02:47:25;;;;;;;10.73;5.65;;;;;;;22.07;35.83;96932.75;10372000;28;97214;-66
2021/12/12 02:52:30;;;;;;;10.32;5.30;;;;;;;22.05;35.65;96930.28;10371899;28;98347;-66
2021/12/12 02:57:35;;;;;;;11.18;5.38;;;;;;;22.00;35.36;96946.06;10360843;28;98936;-66
2021/12/12 03:02:45;;;;;;;10.40;5.35;;;;;;;21.94;35.14;96932.75;10355615;28;97149;-66
2021/12/12 03:07:48;;;;;;;11.50;5.60;;;;;;;21.90;34.98;96929.69;10363264;28;98708;-66
2021/12/12 03:12:52;;;;;;;9.35;4.75;;;;;;;21.88;34.91;96940.53;10364481;28;98413;-66
2021/12/12 03:17:57;;;;;;;;;;;;;;;21.87;36.18;96949.53;10362736;28;98820;-66
2021/12/12 03:23:03;;;;;;;8.80;4.23;;;;;;;21.79;35.64;96940.91;10364080;28;97166;-66
2021/12/12 03:28:09;;;;;;;7.35;4.45;;;;;;;21.84;35.74;96949.09;10362178;28;98261;-66
2021/12/12 03:33:12;;;;;;;8.85;4.13;;;;;;;21.80;35.70;96959.31;10361882;28;97894;-65
2021/12/12 03:38:16;;;;;;;7.20;4.15;;;;;;;21.77;35.40;96970.34;10364798;28;99815;-67
2021/12/12 03:43:20;;;;;;;6.65;3.65;;;;;;;21.82;35.33;96973.25;10359920;28;97125;-66
2021/12/12 03:48:24;;;;;;;;;;;;;;;21.79;36.08;96968.31;10364709;28;97001;-66
2021/12/12 03:53:29;;;;;;;6.77;3.80;;;;;;;21.77;35.72;96975.69;10362175;28;97456;-66
2021/12/12 03:58:34;;;;;;;6.70;3.50;;;;;;;21.74;35.41;96962.78;10360811;28;99026;-66
2021/12/12 04:03:36;;;;;;;;;;;;;;;21.75;35.99;96961.78;10362638;28;99038;-65
2021/12/12 04:08:42;;;;;;;6.22;3.10;;;;;;;21.77;35.88;96953.59;10361485;28;96991;-66
2021/12/12 04:13:50;;;;;;;6.05;3.22;;;;;;;21.79;35.55;96951.53;10360001;28;97772;-67
2021/12/12 04:18:53;;;;;;;6.00;3.08;;;;;;;21.76;35.37;96951.94;10360246;28;97141;-67
2021/12/12 04:23:58;;;;;;;5.03;3.03;;;;;;;21.73;35.59;96961.16;10357488;28;98904;-66
2021/12/12 04:29:04;;;;;;;;;;;;;;;21.72;36.16;96967.47;10363082;28;99803;-65
2021/12/12 04:34:09;;;;;;;4.93;2.70;;;;;;;21.71;36.00;96973.84;10360002;28;99432;-68
2021/12/12 04:39:16;;;;;;;5.88;2.88;;;;;;;21.67;35.32;96975.25;10360373;28;96893;-68
2021/12/12 04:44:25;;;;;;;4.55;2.60;;;;;;;21.61;35.30;96973.38;10356007;28;96953;-67
2021/12/12 04:54:58;;;;;;;4.55;2.58;;;;;;;21.57;34.66;96985.41;10359731;28;98547;-65
2021/12/12 05:00:08;;;;;;;3.67;2.35;;;;;;;21.50;34.65;96988.88;10358551;28;100213;-67
2021/12/12 05:05:16;;;;;;;4.20;2.22;;;;;;;21.50;34.68;97002.16;10363386;28;99227;-67
2021/12/12 05:10:23;;;;;;;4.05;2.55;;;;;;;21.51;34.51;96993.16;10371311;28;97023;-66
2021/12/12 05:15:31;;;;;;;4.53;2.78;;;;;;;21.49;34.46;97000.50;10368705;28;98332;-66
2021/12/12 05:20:37;;;;;;;5.20;2.53;;;;;;;21.43;34.61;97011.09;10367131;28;98299;-66
2021/12/12 05:25:46;;;;;;;4.47;2.53;;;;;;;21.41;34.58;97021.94;10365015;28;97281;-66
2021/12/12 05:30:51;;;;;;;3.80;2.70;;;;;;;21.38;34.80;97017.03;10362784;28;97632;-65
2021/12/12 05:35:54;;;;;;;3.80;2.47;;;;;;;21.37;34.48;97015.38;10361243;28;96850;-66
2021/12/12 05:40:58;;;;;;;3.17;1.97;;;;;;;21.33;34.85;97022.13;10361998;28;97170;-66
2021/12/12 05:46:03;;;;;;;3.60;2.10;;;;;;;21.30;34.80;97027.81;10364226;28;96902;-66
2021/12/12 05:51:07;;;;;;;3.65;2.30;;;;;;;21.24;35.13;97026.78;10360433;28;100471;-66
2021/12/12 05:56:11;;;;;;;3.38;1.88;;;;;;;21.23;34.89;97038.41;10359919;28;97001;-66
2021/12/12 06:01:16;;;;;;;3.42;1.63;;;;;;;21.20;34.67;97033.47;10371056;28;96940;-66
2021/12/12 06:06:23;;;;;;;3.33;2.22;;;;;;;21.15;34.83;97035.09;10366492;28;99572;-66
2021/12/12 06:11:28;;;;;;;3.70;1.88;;;;;;;21.17;34.91;97041.00;10366503;28;98479;-67
2021/12/12 06:16:34;;;;;;;2.95;1.67;;;;;;;21.18;34.72;97045.31;10367550;28;99363;-67
2021/12/12 06:21:38;;;;;;;3.20;1.85;;;;;;;21.19;34.83;97050.44;10366988;28;97876;-66
2021/12/12 06:26:41;;;;;;;2.90;1.80;;;;;;;21.20;35.32;97048.59;10364805;28;97150;-67
2021/12/12 06:31:49;;;;;;;2.65;1.63;;;;;;;21.15;34.64;97057.16;10367012;28;99029;-66
2021/12/12 06:36:53;;;;;;;2.60;1.75;;;;;;;21.15;34.72;97064.31;10362673;28;97160;-67
2021/12/12 06:41:56;;;;;;;2.00;1.47;;;;;;;21.10;34.85;97062.22;10360229;28;97098;-66
2021/12/12 06:47:01;;;;;;;2.43;1.50;;;;;;;21.13;34.93;97060.00;10358009;28;97016;-66
2021/12/12 06:52:05;;;;;;;;;;;;;;;21.16;35.45;97063.31;10360484;28;98002;-66
2021/12/12 06:57:12;;;;;;;2.10;1.40;;;;;;;21.07;35.32;97074.06;10359933;28;99203;-66
2021/12/12 07:02:16;;;;;;;2.13;1.33;;;;;;;21.07;35.16;97076.72;10359809;28;97689;-66
2021/12/12 07:07:19;;;;;;;2.42;1.45;;;;;;;21.13;34.44;97081.25;10365990;28;96991;-65
2021/12/12 07:12:23;;;;;;;1.48;1.13;;;;;;;21.12;34.87;97092.91;10363048;28;99056;-65
2021/12/12 07:17:28;;;;;;;2.08;1.30;;;;;;;21.11;34.94;97093.91;10361075;28;97333;-66
2021/12/12 07:22:31;;;;;;;1.95;1.40;;;;;;;21.09;34.65;97097.78;10363609;28;97208;-66
2021/12/12 07:27:34;;;;;;;1.92;1.27;;;;;;;21.10;34.73;97110.88;10363467;28;98191;-65
2021/12/12 07:32:41;;;;;;;1.50;1.10;;;;;;;21.12;34.93;97113.34;10354209;28;98262;-66
2021/12/12 07:37:45;;;;;;;2.70;1.42;;;;;;;21.17;34.63;97128.69;10358380;28;98536;-66
2021/12/12 07:42:52;;;;;;;2.47;1.05;;;;;;;21.22;34.74;97136.91;10359375;28;99580;-66
2021/12/12 07:47:57;;;;;;;1.30;1.00;;;;;;;21.25;34.72;97120.59;10359892;28;97102;-66
2021/12/12 07:53:00;;;;;;;2.38;1.30;;;;;;;21.27;34.70;97135.31;10361388;28;98813;-66
2021/12/12 07:58:06;;;;;;;2.17;1.30;;;;;;;21.21;34.71;97127.31;10367885;28;98363;-66
2021/12/12 08:03:12;;;;;;;1.50;1.08;;;;;;;21.21;34.54;97141.41;10362279;28;97708;-67
2021/12/12 08:08:16;;;;;;;1.70;1.25;;;;;;;21.29;34.57;97132.47;10362667;28;97539;-66
2021/12/12 08:13:19;;;;;;;1.70;1.30;;;;;;;21.43;34.76;97149.31;10362725;28;97368;-65
2021/12/12 08:18:24;;;;;;;1.60;0.90;;;;;;;21.51;34.69;97147.34;10359397;28;97598;-66
2021/12/12 08:23:27;;;;;;;1.65;1.10;;;;;;;21.51;34.89;97151.84;10364348;28;96999;-65
2021/12/12 08:28:31;;;;;;;1.95;1.20;;;;;;;21.56;34.81;97148.59;10373790;28;97519;-66
2021/12/12 08:33:36;;;;;;;2.00;1.40;;;;;;;21.60;34.58;97155.16;10368279;28;96866;-66
2021/12/12 08:38:39;;;;;;;2.00;1.48;;;;;;;21.57;34.71;97150.22;10366345;28;98624;-66
2021/12/12 08:43:43;;;;;;;2.17;1.47;;;;;;;21.64;34.90;97164.41;10377259;28;98874;-66
2021/12/12 08:48:49;;;;;;;1.47;1.30;;;;;;;21.70;34.60;97171.63;10368025;28;97025;-66
2021/12/12 08:53:54;;;;;;;2.22;1.55;;;;;;;21.80;35.13;97182.72;10375043;28;99131;-64
2021/12/12 08:59:00;;;;;;;2.00;1.30;;;;;;;21.79;34.90;97183.75;10380272;28;96986;-66
2021/12/12 09:04:05;;;;;;;2.10;1.35;;;;;;;21.79;34.66;97181.09;10364966;28;100083;-66
2021/12/12 09:09:33;;;;;;;2.10;1.38;;;;;;;21.90;35.15;97193.03;10369800;28;97658;-67
2021/12/12 09:14:40;;;;;;;2.17;1.67;;;;;;;21.97;34.62;97201.03;10374321;28;98549;-66
2021/12/12 09:19:51;;;;;;;1.98;1.40;;;;;;;22.00;34.87;97213.94;10357264;28;98433;-66
2021/12/12 09:25:00;;;;;;;3.55;1.60;;;;;;;22.01;34.91;97219.06;10369166;28;99242;-66
2021/12/12 09:30:06;;;;;;;2.15;1.52;;;;;;;22.01;34.70;97204.94;10370792;28;96900;-66
2021/12/12 09:35:17;;;;;;;2.47;1.55;;;;;;;22.03;35.08;97202.91;10372309;28;97650;-66
2021/12/12 09:40:49;;;;;;;1.85;1.40;;;;;;;22.10;34.96;97202.94;10370281;28;98890;-66
2021/12/12 09:46:03;;;;;;;1.73;1.23;;;;;;;22.14;34.97;97193.53;10366115;28;97553;-66
2021/12/12 09:51:23;;;;;;;1.80;1.40;;;;;;;22.21;34.90;97203.22;10363084;28;97447;-67
2021/12/12 09:56:34;;;;;;;2.05;1.50;;;;;;;22.34;35.38;97214.94;10365238;28;97092;-66
2021/12/12 10:01:40;;;;;;;1.38;1.17;;;;;;;22.37;35.46;97203.88;10372250;28;97322;-65
2021/12/12 10:06:53;;;;;;;1.90;1.33;;;;;;;22.49;35.65;97207.66;10365521;28;98817;-66
2021/12/12 10:12:01;;;;;;;2.80;1.50;;;;;;;22.54;35.35;97199.88;10368242;28;98281;-66
2021/12/12 10:17:10;;;;;;;1.73;1.30;;;;;;;22.65;35.69;97200.31;10372125;28;99326;-66
2021/12/12 10:22:23;;;;;;;2.22;1.65;;;;;;;22.63;35.80;97185.38;10367554;28;97313;-66
2021/12/12 10:27:33;;;;;;;1.73;1.40;;;;;;;22.66;35.91;97196.63;10363491;28;97712;-66
2021/12/12 10:32:45;;;;;;;2.58;1.75;;;;;;;22.65;36.09;97189.66;10362622;28;97265;-66
2021/12/12 10:37:55;;;;;;;2.22;1.88;;;;;;;22.74;36.16;97204.44;10366384;28;98031;-66
2021/12/12 10:43:03;;;;;;;2.40;1.67;;;;;;;22.74;35.99;97193.78;10357402;28;98778;-66
2021/12/12 10:48:12;;;;;;;2.28;1.88;;;;;;;22.72;36.11;97185.19;10362515;28;97038;-66
2021/12/12 10:53:27;;;;;;;2.28;1.98;;;;;;;22.69;36.34;97180.25;10362072;28;97481;-66
2021/12/12 10:58:38;;;;;;;3.35;2.20;;;;;;;22.73;36.00;97182.31;10367979;28;97215;-67
2021/12/12 11:03:49;;;;;;;2.28;1.83;;;;;;;22.75;36.38;97174.94;10361656;28;97973;-67
2021/12/12 11:08:59;;;;;;;2.53;1.88;;;;;;;22.75;36.29;97168.78;10363515;28;97320;-66
2021/12/12 11:14:12;;;;;;;2.08;1.75;;;;;;;22.88;36.21;97174.13;10358282;28;97403;-66
2021/12/12 11:19:18;;;;;;;2.03;1.83;;;;;;;22.88;36.23;97154.69;10366090;28;97160;-67
2021/12/12 11:24:28;;;;;;;2.20;1.80;;;;;;;22.99;36.25;97159.38;10358631;28;97289;-67
2021/12/12 11:29:34;;;;;;;2.33;2.05;;;;;;;23.00;36.45;97175.19;10351564;28;97150;-66
2021/12/12 11:34:41;;;;;;;1.90;1.70;;;;;;;23.10;36.15;97174.78;10362830;28;99024;-66
2021/12/12 11:39:51;;;;;;;2.22;1.80;;;;;;;23.21;36.07;97172.53;10363777;28;99240;-66
2021/12/12 11:45:04;;;;;;;2.25;1.95;;;;;;;23.27;36.46;97171.69;10366504;28;97163;-64
2021/12/12 11:50:13;;;;;;;3.00;2.00;;;;;;;23.33;36.16;97171.72;10365118;28;97996;-64
2021/12/12 11:55:25;;;;;;;3.00;1.75;;;;;;;23.30;36.00;97172.13;10367807;28;97364;-65
2021/12/12 12:00:32;;;;;;;2.42;1.90;;;;;;;23.35;36.56;97161.69;10368273;28;97156;-65
2021/12/12 12:05:38;;;;;;;2.00;1.67;;;;;;;23.40;36.09;97166.41;10366152;28;97148;-66
2021/12/12 12:11:01;;;;;;;2.45;2.03;;;;;;;23.44;36.45;97151.63;10367807;28;97266;-66
2021/12/12 12:16:11;;;;;;;1.83;1.55;;;;;;;23.50;36.15;97147.31;10372271;28;97384;-66
2021/12/12 12:21:22;;;;;;;2.10;1.60;;;;;;;23.45;36.36;97141.78;10374550;28;97398;-66
2021/12/12 12:32:37;;;;;;;2.35;1.70;;;;;;;23.45;36.23;97131.94;10365964;28;97438;-66
2021/12/12 12:38:13;;;;;;;1.65;1.55;;;;;;;23.50;36.54;97134.81;10378264;28;97255;-67
2021/12/12 12:43:53;;;;;;;2.05;1.50;;;;;;;23.62;36.00;97132.31;10374485;28;97334;-66
2021/12/12 12:49:55;;;;;;;2.92;1.90;;;;;;;23.66;36.09;97130.88;10374748;28;97984;-66
2021/12/12 12:55:46;;;;;;;3.40;1.85;;;;;;;23.64;35.53;97130.25;10373949;28;97232;-66
2021/12/12 13:00:52;;;;;;;2.65;2.00;;;;;;;23.63;35.35;97123.28;10374374;28;97442;-66
2021/12/12 13:06:29;;;;;;;2.33;1.90;;;;;;;23.66;35.22;97125.53;10375786;28;98019;-66
2021/12/12 13:11:41;;;;;;;1.95;1.65;;;;;;;23.63;34.94;97127.78;10364381;28;97332;-66
2021/12/12 13:16:49;;;;;;;2.40;1.80;;;;;;;23.65;34.99;97125.72;10370130;28;97020;-66
2021/12/12 13:22:03;;;;;;;1.90;1.40;;;;;;;23.65;34.29;97121.22;10372371;28;97102;-66
2021/12/12 13:27:18;;;;;;;1.75;1.50;;;;;;;23.60;34.72;97115.69;10370116;28;97329;-65
2021/12/12 13:32:35;;;;;;;2.30;1.52;;;;;;;23.57;34.54;97116.13;10369988;28;97006;-66
2021/12/12 13:37:46;;;;;;;3.30;1.80;;;;;;;23.52;34.34;97100.75;10370676;28;98840;-66
2021/12/12 13:42:58;;;;;;;2.83;1.90;;;;;;;23.67;34.88;97113.00;10367701;28;97797;-66
2021/12/12 13:48:11;;;;;;;2.05;1.50;;;;;;;23.67;35.01;97103.19;10361529;28;97114;-66
2021/12/12 13:53:35;;;;;;;2.10;1.65;;;;;;;23.66;35.61;97096.19;10370302;28;97489;-67
2021/12/12 13:58:49;;;;;;;1.98;1.52;;;;;;;23.69;35.61;97095.78;10367169;28;96865;-66
2021/12/12 14:03:57;;;;;;;2.23;1.60;;;;;;;23.71;35.88;97107.06;10372444;28;98473;-65
2021/12/12 14:09:09;;;;;;;1.88;1.55;;;;;;;23.69;35.93;97094.94;10373976;28;96801;-66
2021/12/12 14:14:17;;;;;;;3.00;1.67;;;;;;;23.70;36.20;97102.72;10378646;28;99715;-67
2021/12/12 14:19:28;;;;;;;1.95;1.58;;;;;;;23.62;36.18;97116.31;10366560;28;98405;-67
2021/12/12 14:24:36;;;;;;;2.53;1.70;;;;;;;23.63;36.49;97107.28;10359007;28;97181;-67
2021/12/12 14:29:43;;;;;;;3.70;3.00;;;;;;;23.69;36.32;97105.59;10371698;28;100000;-67
2021/12/12 14:34:53;;;;;;;18.63;13.85;;;;;;;23.69;35.86;97117.13;10367701;28;97470;-66
2021/12/12 14:40:04;;;;;;;20.38;11.93;;;;;;;23.73;36.48;97106.84;10367593;28;97416;-65
2021/12/12 14:45:12;;;;;;;17.85;11.60;;;;;;;23.83;36.85;97122.38;10368077;28;97224;-65
2021/12/12 14:50:18;;;;;;;17.92;11.32;;;;;;;23.83;36.75;97117.06;10367725;28;98101;-66
2021/12/12 14:55:26;;;;;;;14.25;10.10;;;;;;;23.88;37.07;97111.91;10366115;28;97426;-65
2021/12/12 15:00:33;;;;;;;13.85;9.90;;;;;;;23.92;37.18;97115.81;10368434;28;97374;-65
2021/12/12 15:05:41;;;;;;;13.00;8.52;;;;;;;23.91;37.16;97119.50;10364491;28;97163;-65
2021/12/12 15:10:51;;;;;;;11.65;7.80;;;;;;;23.94;37.32;97113.75;10365395;28;97405;-65
2021/12/12 15:15:58;;;;;;;13.70;8.02;;;;;;;23.99;37.59;97105.94;10363241;28;97403;-65
2021/12/12 15:21:05;;;;;;;10.07;7.00;;;;;;;23.97;37.21;97096.47;10360477;28;97284;-65
2021/12/12 15:26:16;;;;;;;11.00;6.68;;;;;;;23.99;37.30;97100.59;10360926;28;97927;-65
2021/12/12 15:31:28;;;;;;;9.73;6.07;;;;;;;24.01;37.39;97097.72;10368506;28;96836;-64
2021/12/12 15:36:35;;;;;;;7.20;5.43;;;;;;;24.02;37.35;97102.84;10365869;28;97419;-66
2021/12/12 15:41:41;;;;;;;7.50;5.13;;;;;;;23.97;37.41;97097.31;10365037;28;100906;-65
2021/12/12 15:46:47;;;;;;;8.38;5.43;;;;;;;23.94;37.14;97103.88;10362532;28;97352;-65
2021/12/12 15:51:50;;;;;;;7.53;5.28;;;;;;;24.01;36.97;97103.03;10360073;28;98106;-65
2021/12/12 15:57:00;;;;;;;7.90;4.73;;;;;;;24.03;36.80;97106.31;10359818;28;100408;-66
2021/12/12 16:02:08;;;;;;;6.38;4.38;;;;;;;24.01;37.03;97114.53;10365782;28;97231;-65
2021/12/12 16:07:15;;;;;;;5.50;3.78;;;;;;;24.05;37.04;97115.78;10364038;28;99147;-66
2021/12/12 16:12:21;;;;;;;5.20;4.28;;;;;;;24.04;36.50;97115.97;10360953;28;98285;-64
2021/12/12 16:17:28;;;;;;;4.43;3.63;;;;;;;24.04;37.16;97118.66;10362330;28;97249;-65
2021/12/12 16:22:36;;;;;;;5.72;3.83;;;;;;;24.07;36.77;97119.06;10360021;28;99156;-65
2021/12/12 16:27:42;;;;;;;4.75;3.25;;;;;;;24.03;36.71;97119.66;10361355;28;99149;-64
2021/12/12 16:32:51;;;;;;;4.13;3.17;;;;;;;24.06;36.41;97128.09;10369783;28;96981;-65
2021/12/12 16:37:56;;;;;;;5.22;3.42;;;;;;;24.08;36.34;97128.69;10359277;28;96938;-65
2021/12/12 16:43:13;;;;;;;3.60;2.78;;;;;;;24.06;36.50;97128.09;10366767;28;97514;-66
2021/12/12 16:48:19;;;;;;;3.90;2.95;;;;;;;24.07;36.62;97121.75;10360825;28;97548;-65
2021/12/12 16:53:25;;;;;;;3.92;2.85;;;;;;;24.06;36.31;97117.41;10364840;28;97429;-65
2021/12/12 16:58:33;;;;;;;3.42;2.85;;;;;;;24.06;36.23;97117.41;10370058;28;98192;-65
2021/12/12 17:03:40;;;;;;;4.60;3.25;;;;;;;24.09;36.25;97117.00;10368247;28;97016;-65
2021/12/12 17:14:11;;;;;;;3.50;2.92;;;;;;;24.11;36.05;97125.59;10374056;28;96915;-66
2021/12/12 17:19:17;;;;;;;3.30;2.75;;;;;;;24.11;36.01;97122.94;10365435;28;98109;-66
2021/12/12 17:24:21;;;;;;;3.70;2.53;;;;;;;24.10;36.03;97123.97;10371465;28;97132;-67
2021/12/12 17:29:28;;;;;;;;;;;;;;;24.10;36.17;97131.97;10373492;28;101907;-67
2021/12/12 17:34:35;;;;;;;2.85;2.50;;;;;;;24.09;35.95;97132.22;10374529;28;96948;-66
2021/12/12 17:39:42;;;;;;;3.58;2.42;;;;;;;24.10;35.84;97134.63;10367478;28;98473;-65
2021/12/12 17:45:30;;;;;;;3.20;2.70;;;;;;;24.10;35.43;97137.31;10369323;28;96964;-67
2021/12/12 17:51:06;;;;;;;3.08;2.30;;;;;;;24.16;35.87;97137.50;10372549;28;97160;-67
2021/12/12 17:56:16;;;;;;;3.97;3.00;;;;;;;24.12;35.77;97134.44;10320212;28;97123;-67
2021/12/12 18:01:23;;;;;;;3.58;2.78;;;;;;;24.16;35.52;97133.00;10323251;28;97317;-65
2021/12/12 18:06:28;;;;;;;4.07;3.25;;;;;;;24.15;35.64;97127.88;10310833;28;97638;-66
2021/12/12 18:11:37;;;;;;;4.20;3.70;;;;;;;24.17;35.40;97126.59;10315787;28;97492;-67
2021/12/12 18:17:05;;;;;;;6.13;3.83;;;;;;;24.14;35.47;97135.06;10318845;28;98280;-70
2021/12/12 18:22:12;;;;;;;4.65;3.72;;;;;;;24.16;35.04;97129.47;10324591;28;97825;-67
2021/12/12 18:27:18;;;;;;;4.68;3.80;;;;;;;24.16;34.59;97140.16;10313854;28;97436;-67
2021/12/12 18:32:29;;;;;;;4.07;3.33;;;;;;;24.15;34.63;97135.88;10346813;28;97218;-67
2021/12/12 18:37:36;;;;;;;5.13;3.40;;;;;;;24.13;34.37;97141.41;10365458;28;98805;-67
2021/12/12 18:42:43;;;;;;;4.57;3.80;;;;;;;24.12;33.97;97142.44;10368711;28;97340;-67
2021/12/12 18:47:55;;;;;;;4.05;3.58;;;;;;;24.09;34.19;97151.69;10372913;28;97176;-68
2021/12/12 18:53:01;;;;;;;4.22;3.30;;;;;;;24.08;33.77;97144.72;10363371;28;97546;-67
2021/12/12 18:58:08;;;;;;;4.28;3.60;;;;;;;24.07;33.48;97143.09;10370447;28;103650;-67
2021/12/12 19:03:14;;;;;;;4.05;3.33;;;;;;;24.05;33.62;97150.47;10368928;28;98244;-67
2021/12/12 19:08:19;;;;;;;4.75;3.42;;;;;;;24.05;33.61;97146.94;10368684;28;97246;-67
2021/12/12 19:13:27;;;;;;;4.80;3.55;;;;;;;24.01;34.11;97151.91;10367636;28;96972;-67
2021/12/12 19:18:34;;;;;;;3.65;3.25;;;;;;;24.04;34.06;97135.47;10364179;28;97750;-66
2021/12/12 19:23:42;;;;;;;4.15;2.92;;;;;;;24.04;34.14;97143.47;10366788;28;97427;-66
2021/12/12 19:28:50;;;;;;;3.10;2.50;;;;;;;24.07;34.04;97142.25;10365887;28;97560;-68
2021/12/12 19:34:02;;;;;;;4.15;2.85;;;;;;;24.08;34.32;97138.56;10368103;28;97240;-67
2021/12/12 19:39:08;;;;;;;;;;;;;;;24.06;34.95;97146.78;10362639;28;99290;-67
2021/12/12 19:44:12;;;;;;;3.47;2.65;;;;;;;24.07;34.46;97140.41;10366981;28;97836;-68
2021/12/12 19:49:18;;;;;;;3.40;2.70;;;;;;;24.03;34.34;97128.47;10364741;28;98737;-68
2021/12/12 19:54:25;;;;;;;3.42;2.53;;;;;;;24.05;34.54;97142.47;10360687;28;97926;-68
2021/12/12 19:59:34;;;;;;;6.38;2.72;;;;;;;24.05;34.69;97126.44;10358302;28;98068;-67
2021/12/12 20:04:41;;;;;;;2.75;2.30;;;;;;;24.08;34.33;97120.69;10365056;28;98544;-67
2021/12/12 20:09:47;;;;;;;3.40;2.47;;;;;;;24.07;34.41;97124.41;10363894;28;98118;-68
2021/12/12 20:14:57;;;;;;;2.88;2.40;;;;;;;24.09;34.28;97117.00;10358914;28;98012;-68
2021/12/12 20:20:03;;;;;;;3.88;2.38;;;;;;;24.12;34.44;97118.41;10362159;28;99004;-68
2021/12/12 20:25:09;;;;;;;3.65;2.50;;;;;;;24.13;34.27;97115.53;10362401;28;97932;-69
2021/12/12 20:30:19;;;;;;;2.70;2.00;;;;;;;24.14;34.21;97111.03;10360833;28;99081;-68
2021/12/12 20:35:27;;;;;;;3.80;2.90;;;;;;;24.17;34.34;97112.44;10362566;28;96980;-68
2021/12/12 20:40:35;;;;;;;3.60;3.00;;;;;;;24.18;33.93;97116.75;10368343;28;98640;-69
2021/12/12 20:45:45;;;;;;;4.47;3.45;;;;;;;24.17;34.40;97109.78;10364542;28;98363;-68
2021/12/12 20:50:52;;;;;;;4.13;3.05;;;;;;;24.22;34.34;97115.28;10370599;28;96957;-68
2021/12/12 20:56:00;;;;;;;3.90;3.10;;;;;;;24.25;34.26;97114.88;10369432;28;97813;-68
2021/12/12 21:01:11;;;;;;;3.90;3.28;;;;;;;24.19;34.10;97105.84;10366273;28;97070;-69
2021/12/12 21:06:19;;;;;;;3.50;2.63;;;;;;;24.25;34.26;97114.88;10370109;28;97303;-68
2021/12/12 21:11:28;;;;;;;3.83;3.10;;;;;;;24.23;34.29;97112.41;10367277;28;97241;-67
2021/12/12 21:16:34;;;;;;;4.28;3.20;;;;;;;24.32;34.40;97115.66;10374421;28;97750;-67
2021/12/12 21:21:40;;;;;;;3.78;2.92;;;;;;;24.29;34.05;97105.41;10364110;28;98175;-67
2021/12/12 21:26:47;;;;;;;3.47;2.78;;;;;;;24.34;34.40;97113.59;10370469;28;98513;-67
2021/12/12 21:31:54;;;;;;;3.33;2.75;;;;;;;24.40;34.24;97111.91;10363090;28;98636;-67
2021/12/12 21:36:58;;;;;;;3.20;2.50;;;;;;;24.37;34.03;97107.81;10367277;28;97129;-66
2021/12/12 21:42:06;;;;;;;3.00;2.50;;;;;;;24.33;33.91;97111.94;10366501;28;97291;-66
2021/12/12 21:47:18;;;;;;;4.00;2.88;;;;;;;24.36;34.23;97111.50;10367745;27;104251;-66
2021/12/12 21:52:40;;;;;;;4.28;2.80;;;;;;;24.34;34.03;97110.91;10368375;28;97170;-68
2021/12/12 21:57:43;;;;;;;3.28;2.50;;;;;;;24.35;34.08;97120.56;10368370;28;97354;-67
2021/12/12 22:02:50;;;;;;;3.53;2.80;;;;;;;24.35;33.85;97131.25;10375145;28;98400;-67
2021/12/12 22:08:02;;;;;;;4.38;3.15;;;;;;;24.45;33.62;97136.97;10383829;28;97723;-67
2021/12/12 22:13:10;;;;;;;3.83;2.83;;;;;;;24.53;33.82;97146.56;10372244;28;101219;-68
2021/12/12 22:18:26;;;;;;;3.63;2.87;;;;;;;24.57;33.55;97149.63;10367203;28;98667;-75
2021/12/12 22:23:33;;;;;;;3.42;2.58;;;;;;;24.56;33.33;97146.13;10366189;28;97597;-66
2021/12/12 22:28:42;;;;;;;4.00;3.13;;;;;;;24.53;33.43;97148.41;10373384;28;97259;-66
2021/12/12 22:33:50;;;;;;;3.67;2.85;;;;;;;24.49;33.01;97148.84;10368240;28;97227;-69
2021/12/12 22:38:56;;;;;;;4.70;3.20;;;;;;;24.50;33.17;97145.16;10368770;28;97131;-67
2021/12/12 22:44:08;;;;;;;4.07;3.05;;;;;;;24.53;33.14;97159.09;10368701;28;97275;-67
2021/12/12 22:49:16;;;;;;;4.03;3.10;;;;;;;24.52;33.40;97157.47;10370853;28;97111;-67
2021/12/12 22:54:24;;;;;;;3.95;3.13;;;;;;;24.58;33.19;97146.75;10367061;28;97797;-68
2021/12/12 22:59:31;;;;;;;3.25;2.50;;;;;;;24.61;32.96;97151.66;10364795;28;98514;-68
2021/12/12 23:04:39;;;;;;;4.07;2.95;;;;;;;24.63;33.27;97167.47;10367905;28;97048;-68
2021/12/12 23:09:47;;;;;;;3.63;3.00;;;;;;;24.60;33.17;97165.22;10369780;28;97411;-69
2021/12/12 23:14:54;;;;;;;3.50;2.65;;;;;;;24.57;33.10;97161.13;10364284;28;97288;-68
2021/12/12 23:20:01;;;;;;;3.95;3.08;;;;;;;24.61;32.95;97166.84;10365593;28;98586;-67
2021/12/12 23:25:11;;;;;;;3.85;2.90;;;;;;;24.62;32.96;97168.50;10373427;28;97620;-67
2021/12/12 23:30:19;;;;;;;3.75;2.70;;;;;;;24.60;32.90;97176.72;10365949;28;97400;-67
2021/12/12 23:35:28;;;;;;;4.00;2.92;;;;;;;24.61;32.39;97180.19;10366645;28;97094;-67
2021/12/12 23:40:35;;;;;;;4.03;3.00;;;;;;;24.57;32.33;97181.69;10358495;28;98599;-68
2021/12/12 23:45:44;;;;;;;4.50;2.97;;;;;;;24.49;32.72;97174.75;10366399;28;96946;-67
2021/12/12 23:50:52;;;;;;;3.90;3.30;;;;;;;24.46;32.90;97188.50;10367298;28;97407;-67
2021/12/12 23:55:58;;;;;;;3.58;2.83;;;;;;;24.42;32.63;97174.78;10367892;28;96944;-68
